SAS1643 EVRA-EKCH
Flight info
| Callsign | SAS1643 |
|---|---|
| Flight time | 1h 21m |
| Altitude | 38000 |
| Route | VALED DCT ADAXA DCT NINTA DCT KOLJA DCT ELVIX L975 TIDVU |
| Aircraft | A319/M-SDE3FGHIRWY/LB1 |
Departure
| Time | 2026-05-04 17:11 |
|---|---|
| Airport | Riga International Airport (EVRA) |
Arrival
| Time | 2026-05-04 18:33 |
|---|---|
| Airport | Copenhagen Kastrup Airport (EKCH) |
| Time | Latitude | Longitude | Altitude | Speed | Heading |
|---|---|---|---|---|---|
| 2026-05-04 16:45 | 56.92199 | 23.97674 | 46 ft | 0 kts | 5° |
| 2026-05-04 17:03 | 56.92197 | 23.97673 | 18 ft | 1 kts | 5° |
| 2026-05-04 17:03 | 56.92173 | 23.97672 | 46 ft | 3 kts | 354° |
| 2026-05-04 17:03 | 56.92143 | 23.97689 | 43 ft | 3 kts | 314° |
| 2026-05-04 17:04 | 56.92134 | 23.97722 | 46 ft | 0 kts | 275° |
| 2026-05-04 17:07 | 56.92138 | 23.97642 | 44 ft | 7 kts | 276° |
| 2026-05-04 17:07 | 56.92143 | 23.97563 | 46 ft | 12 kts | 274° |
| 2026-05-04 17:07 | 56.92231 | 23.97488 | 46 ft | 14 kts | 3° |
| 2026-05-04 17:07 | 56.92331 | 23.97506 | 46 ft | 15 kts | 5° |
| 2026-05-04 17:08 | 56.92444 | 23.97527 | 46 ft | 17 kts | 8° |
| 2026-05-04 17:08 | 56.92704 | 23.97573 | 43 ft | 20 kts | 5° |
| 2026-05-04 17:08 | 56.92850 | 23.97597 | 46 ft | 22 kts | 5° |
| 2026-05-04 17:09 | 56.92952 | 23.97566 | 46 ft | 11 kts | 296° |
| 2026-05-04 17:09 | 56.92962 | 23.97427 | 46 ft | 3 kts | 275° |
| 2026-05-04 17:09 | 56.92962 | 23.97426 | 46 ft | 0 kts | 275° |
| 2026-05-04 17:10 | 56.92968 | 23.97328 | 47 ft | 13 kts | 275° |
| 2026-05-04 17:10 | 56.92262 | 23.97103 | 47 ft | 119 kts | 186° |
| 2026-05-04 17:11 | 56.91302 | 23.96938 | 391 ft | 141 kts | 188° |
| 2026-05-04 17:11 | 56.90339 | 23.96779 | 868 ft | 141 kts | 189° |
| 2026-05-04 17:11 | 56.88368 | 23.96453 | 1880 ft | 149 kts | 192° |
| 2026-05-04 17:12 | 56.87256 | 23.96253 | 2194 ft | 172 kts | 193° |
| 2026-05-04 17:12 | 56.84728 | 23.94968 | 2847 ft | 208 kts | 223° |
| 2026-05-04 17:13 | 56.81672 | 23.88092 | 3973 ft | 242 kts | 235° |
| 2026-05-04 17:14 | 56.78550 | 23.80864 | 4008 ft | 241 kts | 235° |
| 2026-05-04 17:14 | 56.77504 | 23.78433 | 4240 ft | 248 kts | 235° |
| 2026-05-04 17:14 | 56.75161 | 23.73862 | 6340 ft | 246 kts | 230° |
| 2026-05-04 17:15 | 56.73979 | 23.71626 | 7353 ft | 244 kts | 230° |
| 2026-05-04 17:15 | 56.71611 | 23.67135 | 9161 ft | 251 kts | 231° |
| 2026-05-04 17:16 | 56.69084 | 23.62348 | 10373 ft | 279 kts | 230° |
| 2026-05-04 17:16 | 56.64845 | 23.54373 | 12360 ft | 301 kts | 230° |
| 2026-05-04 17:17 | 56.63382 | 23.51634 | 13135 ft | 304 kts | 230° |
| 2026-05-04 17:17 | 56.59034 | 23.43027 | 15246 ft | 311 kts | 234° |
| 2026-05-04 17:18 | 56.57945 | 23.39653 | 15925 ft | 311 kts | 250° |
| 2026-05-04 17:18 | 56.57501 | 23.31880 | 17296 ft | 319 kts | 277° |
| 2026-05-04 17:19 | 56.58984 | 23.24147 | 18603 ft | 328 kts | 287° |
| 2026-05-04 17:19 | 56.60632 | 23.16375 | 19849 ft | 331 kts | 285° |
| 2026-05-04 17:20 | 56.62032 | 23.08400 | 21103 ft | 333 kts | 282° |
| 2026-05-04 17:20 | 56.63300 | 23.00291 | 22334 ft | 336 kts | 281° |
| 2026-05-04 17:20 | 56.63943 | 22.96190 | 22942 ft | 338 kts | 281° |
| 2026-05-04 17:21 | 56.65261 | 22.87957 | 24007 ft | 342 kts | 281° |
| 2026-05-04 17:21 | 56.66614 | 22.79617 | 24951 ft | 346 kts | 281° |
| 2026-05-04 17:22 | 56.67294 | 22.75417 | 25416 ft | 348 kts | 281° |
| 2026-05-04 17:22 | 56.67980 | 22.71178 | 25870 ft | 350 kts | 281° |
| 2026-05-04 17:23 | 56.70031 | 22.58378 | 27259 ft | 356 kts | 281° |
| 2026-05-04 17:23 | 56.70724 | 22.54027 | 27715 ft | 358 kts | 281° |
| 2026-05-04 17:23 | 56.71621 | 22.45167 | 28600 ft | 355 kts | 267° |
| 2026-05-04 17:24 | 56.71411 | 22.40694 | 29053 ft | 355 kts | 258° |
| 2026-05-04 17:24 | 56.70010 | 22.27359 | 30259 ft | 361 kts | 258° |
| 2026-05-04 17:25 | 56.69541 | 22.22839 | 30562 ft | 364 kts | 258° |
| 2026-05-04 17:25 | 56.68584 | 22.13704 | 31111 ft | 371 kts | 258° |
| 2026-05-04 17:26 | 56.67596 | 22.04405 | 31687 ft | 377 kts | 258° |
| 2026-05-04 17:26 | 56.66087 | 21.90292 | 32745 ft | 381 kts | 258° |
| 2026-05-04 17:27 | 56.65059 | 21.80796 | 33451 ft | 384 kts | 258° |
| 2026-05-04 17:27 | 56.64020 | 21.71250 | 34138 ft | 386 kts | 258° |
| 2026-05-04 17:28 | 56.62965 | 21.61631 | 34771 ft | 386 kts | 258° |
| 2026-05-04 17:29 | 56.61371 | 21.47261 | 35694 ft | 387 kts | 258° |
| 2026-05-04 17:29 | 56.59766 | 21.32919 | 36627 ft | 386 kts | 258° |
| 2026-05-04 17:30 | 56.58957 | 21.25727 | 36974 ft | 388 kts | 258° |
| 2026-05-04 17:34 | 56.58098 | 21.18107 | 37373 ft | 389 kts | 258° |
| 2026-05-04 17:34 | 56.57551 | 21.13298 | 37638 ft | 389 kts | 258° |
| 2026-05-04 17:35 | 56.55874 | 20.98811 | 37863 ft | 391 kts | 258° |
| 2026-05-04 17:35 | 56.54758 | 20.89206 | 37864 ft | 391 kts | 258° |
| 2026-05-04 17:36 | 56.53634 | 20.79549 | 37859 ft | 391 kts | 258° |
| 2026-05-04 17:36 | 56.52499 | 20.69914 | 37860 ft | 391 kts | 258° |
| 2026-05-04 17:37 | 56.51350 | 20.60282 | 37882 ft | 391 kts | 258° |
| 2026-05-04 17:37 | 56.50196 | 20.50643 | 37876 ft | 391 kts | 258° |
| 2026-05-04 17:38 | 56.49043 | 20.41032 | 37852 ft | 391 kts | 258° |
| 2026-05-04 17:38 | 56.47880 | 20.31437 | 37859 ft | 390 kts | 258° |
| 2026-05-04 17:39 | 56.46120 | 20.17051 | 37868 ft | 390 kts | 258° |
| 2026-05-04 17:39 | 56.44950 | 20.07551 | 37866 ft | 389 kts | 258° |
| 2026-05-04 17:40 | 56.43759 | 19.97931 | 37864 ft | 389 kts | 257° |
| 2026-05-04 17:40 | 56.42575 | 19.88461 | 37880 ft | 389 kts | 257° |
| 2026-05-04 17:41 | 56.41375 | 19.78927 | 37872 ft | 389 kts | 257° |
| 2026-05-04 17:41 | 56.40170 | 19.69389 | 37866 ft | 389 kts | 257° |
| 2026-05-04 17:42 | 56.38961 | 19.59865 | 37863 ft | 389 kts | 257° |
| 2026-05-04 17:42 | 56.37742 | 19.50352 | 37844 ft | 389 kts | 257° |
| 2026-05-04 17:43 | 56.36514 | 19.40849 | 37849 ft | 389 kts | 257° |
| 2026-05-04 17:43 | 56.35273 | 19.31343 | 37855 ft | 389 kts | 257° |
| 2026-05-04 17:44 | 56.34027 | 19.21827 | 37871 ft | 389 kts | 257° |
| 2026-05-04 17:44 | 56.32780 | 19.12332 | 37865 ft | 389 kts | 257° |
| 2026-05-04 17:45 | 56.31520 | 19.02841 | 37869 ft | 389 kts | 257° |
| 2026-05-04 17:45 | 56.30259 | 18.93427 | 37860 ft | 389 kts | 257° |
| 2026-05-04 17:46 | 56.29049 | 18.83937 | 37854 ft | 389 kts | 258° |
| 2026-05-04 17:46 | 56.28017 | 18.74361 | 37857 ft | 389 kts | 259° |
| 2026-05-04 17:47 | 56.27002 | 18.64795 | 37862 ft | 389 kts | 259° |
| 2026-05-04 17:47 | 56.26124 | 18.56783 | 37872 ft | 390 kts | 258° |
| 2026-05-04 17:48 | 56.24864 | 18.45680 | 37842 ft | 390 kts | 258° |
| 2026-05-04 17:48 | 56.23942 | 18.37669 | 37845 ft | 391 kts | 258° |
| 2026-05-04 17:49 | 56.22839 | 18.28156 | 37860 ft | 391 kts | 257° |
| 2026-05-04 17:49 | 56.21506 | 18.18628 | 37859 ft | 391 kts | 255° |
| 2026-05-04 17:50 | 56.20031 | 18.09213 | 37866 ft | 391 kts | 255° |
| 2026-05-04 17:50 | 56.18578 | 17.99860 | 37867 ft | 392 kts | 255° |
| 2026-05-04 17:51 | 56.17141 | 17.90423 | 37878 ft | 392 kts | 255° |
| 2026-05-04 17:51 | 56.15702 | 17.80974 | 37875 ft | 393 kts | 255° |
| 2026-05-04 17:52 | 56.14252 | 17.71529 | 37874 ft | 393 kts | 255° |
| 2026-05-04 17:52 | 56.12887 | 17.62042 | 37876 ft | 393 kts | 257° |
| 2026-05-04 17:53 | 56.11640 | 17.52503 | 37855 ft | 393 kts | 257° |
| 2026-05-04 17:53 | 56.10386 | 17.42975 | 37863 ft | 393 kts | 257° |
| 2026-05-04 17:54 | 56.09101 | 17.33515 | 37872 ft | 394 kts | 256° |
| 2026-05-04 17:54 | 56.07791 | 17.23981 | 37893 ft | 394 kts | 256° |
| 2026-05-04 17:55 | 56.06479 | 17.14449 | 37890 ft | 394 kts | 256° |
| 2026-05-04 17:55 | 56.05158 | 17.04933 | 37883 ft | 394 kts | 256° |
| 2026-05-04 17:56 | 56.04488 | 17.00162 | 37638 ft | 394 kts | 256° |
| 2026-05-04 17:56 | 56.03822 | 16.95409 | 37366 ft | 394 kts | 256° |
| 2026-05-04 17:56 | 56.03160 | 16.90663 | 37109 ft | 393 kts | 256° |
| 2026-05-04 17:56 | 56.02495 | 16.85919 | 36837 ft | 393 kts | 256° |
| 2026-05-04 17:57 | 56.01826 | 16.81175 | 36575 ft | 393 kts | 256° |
| 2026-05-04 17:57 | 56.01151 | 16.76445 | 36324 ft | 393 kts | 256° |
| 2026-05-04 17:57 | 56.00475 | 16.71714 | 36071 ft | 392 kts | 256° |
| 2026-05-04 17:57 | 55.99802 | 16.67016 | 35811 ft | 390 kts | 256° |
| 2026-05-04 17:58 | 55.99137 | 16.62331 | 35570 ft | 387 kts | 256° |
| 2026-05-04 17:58 | 55.98476 | 16.57688 | 35294 ft | 384 kts | 256° |
| 2026-05-04 17:58 | 55.97825 | 16.53151 | 35049 ft | 380 kts | 256° |
| 2026-05-04 17:58 | 55.97172 | 16.48604 | 34807 ft | 376 kts | 256° |
| 2026-05-04 17:59 | 55.96525 | 16.44102 | 34570 ft | 374 kts | 256° |
| 2026-05-04 17:59 | 55.95876 | 16.39622 | 34338 ft | 371 kts | 256° |
| 2026-05-04 17:59 | 55.94586 | 16.30769 | 33864 ft | 366 kts | 256° |
| 2026-05-04 18:00 | 55.93944 | 16.26395 | 33591 ft | 363 kts | 256° |
| 2026-05-04 18:00 | 55.93305 | 16.22049 | 33313 ft | 361 kts | 256° |
| 2026-05-04 18:00 | 55.92671 | 16.17731 | 33041 ft | 359 kts | 256° |
| 2026-05-04 18:00 | 55.92037 | 16.13436 | 32771 ft | 357 kts | 256° |
| 2026-05-04 18:01 | 55.91407 | 16.09170 | 32510 ft | 354 kts | 256° |
| 2026-05-04 18:01 | 55.90780 | 16.04944 | 32240 ft | 352 kts | 256° |
| 2026-05-04 18:01 | 55.90151 | 16.00728 | 31986 ft | 350 kts | 256° |
| 2026-05-04 18:02 | 55.88890 | 15.92275 | 31486 ft | 355 kts | 256° |
| 2026-05-04 18:02 | 55.88256 | 15.88036 | 31228 ft | 354 kts | 256° |
| 2026-05-04 18:02 | 55.87624 | 15.83813 | 30980 ft | 353 kts | 256° |
| 2026-05-04 18:02 | 55.86989 | 15.79584 | 30726 ft | 352 kts | 256° |
| 2026-05-04 18:03 | 55.86357 | 15.75390 | 30482 ft | 350 kts | 256° |
| 2026-05-04 18:03 | 55.85727 | 15.71211 | 30240 ft | 349 kts | 256° |
| 2026-05-04 18:03 | 55.85100 | 15.67100 | 30003 ft | 347 kts | 256° |
| 2026-05-04 18:03 | 55.84468 | 15.62959 | 29682 ft | 346 kts | 255° |
| 2026-05-04 18:04 | 55.83845 | 15.58876 | 29395 ft | 338 kts | 255° |
| 2026-05-04 18:04 | 55.83233 | 15.54869 | 29107 ft | 332 kts | 255° |
| 2026-05-04 18:04 | 55.82027 | 15.47017 | 28546 ft | 327 kts | 255° |
| 2026-05-04 18:05 | 55.81430 | 15.43128 | 28270 ft | 326 kts | 255° |
| 2026-05-04 18:05 | 55.80831 | 15.39254 | 27997 ft | 324 kts | 255° |
| 2026-05-04 18:05 | 55.80235 | 15.35394 | 27740 ft | 323 kts | 255° |
| 2026-05-04 18:05 | 55.79635 | 15.31507 | 27467 ft | 329 kts | 255° |
| 2026-05-04 18:06 | 55.78416 | 15.23657 | 26947 ft | 329 kts | 255° |
| 2026-05-04 18:06 | 55.77807 | 15.19747 | 26723 ft | 326 kts | 255° |
| 2026-05-04 18:06 | 55.77207 | 15.15917 | 26458 ft | 320 kts | 255° |
| 2026-05-04 18:07 | 55.76611 | 15.12126 | 26139 ft | 316 kts | 255° |
| 2026-05-04 18:07 | 55.76023 | 15.08395 | 25817 ft | 311 kts | 255° |
| 2026-05-04 18:07 | 55.75442 | 15.04719 | 25490 ft | 308 kts | 255° |
| 2026-05-04 18:07 | 55.74868 | 15.01082 | 25158 ft | 304 kts | 255° |
| 2026-05-04 18:08 | 55.74300 | 14.97487 | 24832 ft | 301 kts | 255° |
| 2026-05-04 18:08 | 55.73736 | 14.93929 | 24498 ft | 298 kts | 255° |
| 2026-05-04 18:08 | 55.73184 | 14.90455 | 24172 ft | 295 kts | 255° |
| 2026-05-04 18:08 | 55.72629 | 14.86974 | 23846 ft | 292 kts | 255° |
| 2026-05-04 18:09 | 55.71524 | 14.80076 | 23143 ft | 288 kts | 255° |
| 2026-05-04 18:09 | 55.70442 | 14.73303 | 22491 ft | 284 kts | 255° |
| 2026-05-04 18:10 | 55.69905 | 14.69939 | 22166 ft | 283 kts | 256° |
| 2026-05-04 18:10 | 55.69368 | 14.66587 | 21816 ft | 282 kts | 255° |
| 2026-05-04 18:10 | 55.68828 | 14.63252 | 21515 ft | 280 kts | 255° |
| 2026-05-04 18:10 | 55.68291 | 14.59955 | 21203 ft | 278 kts | 255° |
| 2026-05-04 18:11 | 55.67757 | 14.56671 | 20877 ft | 277 kts | 255° |
| 2026-05-04 18:11 | 55.67225 | 14.53398 | 20562 ft | 275 kts | 255° |
| 2026-05-04 18:11 | 55.66696 | 14.50148 | 20245 ft | 274 kts | 255° |
| 2026-05-04 18:11 | 55.66170 | 14.46912 | 19932 ft | 273 kts | 255° |
| 2026-05-04 18:12 | 55.65645 | 14.43675 | 19616 ft | 272 kts | 255° |
| 2026-05-04 18:12 | 55.65121 | 14.40471 | 19387 ft | 271 kts | 255° |
| 2026-05-04 18:12 | 55.64594 | 14.37261 | 18987 ft | 270 kts | 255° |
| 2026-05-04 18:12 | 55.64072 | 14.34082 | 18673 ft | 269 kts | 255° |
| 2026-05-04 18:13 | 55.63549 | 14.30901 | 18363 ft | 268 kts | 255° |
| 2026-05-04 18:13 | 55.63029 | 14.27748 | 18028 ft | 267 kts | 255° |
| 2026-05-04 18:13 | 55.61990 | 14.21477 | 17393 ft | 264 kts | 255° |
| 2026-05-04 18:14 | 55.60972 | 14.15338 | 16781 ft | 262 kts | 255° |
| 2026-05-04 18:14 | 55.60452 | 14.12217 | 16475 ft | 261 kts | 255° |
| 2026-05-04 18:15 | 55.59434 | 14.06130 | 15892 ft | 259 kts | 255° |
| 2026-05-04 18:15 | 55.58416 | 14.00045 | 15282 ft | 257 kts | 255° |
| 2026-05-04 18:15 | 55.57902 | 13.96974 | 14980 ft | 256 kts | 255° |
| 2026-05-04 18:16 | 55.57404 | 13.94003 | 14691 ft | 255 kts | 255° |
| 2026-05-04 18:16 | 55.56899 | 13.90998 | 14396 ft | 254 kts | 255° |
| 2026-05-04 18:16 | 55.56396 | 13.88007 | 14103 ft | 254 kts | 254° |
| 2026-05-04 18:17 | 55.55389 | 13.82063 | 13487 ft | 252 kts | 254° |
| 2026-05-04 18:17 | 55.54887 | 13.79106 | 13183 ft | 251 kts | 254° |
| 2026-05-04 18:17 | 55.53889 | 13.73227 | 12593 ft | 249 kts | 254° |
| 2026-05-04 18:18 | 55.53388 | 13.70295 | 12297 ft | 249 kts | 254° |
| 2026-05-04 18:18 | 55.52890 | 13.67377 | 12057 ft | 248 kts | 254° |
| 2026-05-04 18:18 | 55.52393 | 13.64462 | 11777 ft | 248 kts | 254° |
| 2026-05-04 18:18 | 55.51894 | 13.61547 | 11489 ft | 247 kts | 254° |
| 2026-05-04 18:19 | 55.50897 | 13.55747 | 10907 ft | 246 kts | 254° |
| 2026-05-04 18:19 | 55.50399 | 13.52849 | 10613 ft | 246 kts | 254° |
| 2026-05-04 18:19 | 55.49903 | 13.49961 | 10318 ft | 245 kts | 254° |
| 2026-05-04 18:20 | 55.49407 | 13.47090 | 10029 ft | 245 kts | 254° |
| 2026-05-04 18:20 | 55.48913 | 13.44229 | 9736 ft | 244 kts | 255° |
| 2026-05-04 18:20 | 55.48419 | 13.41367 | 9412 ft | 244 kts | 255° |
| 2026-05-04 18:20 | 55.48279 | 13.38313 | 9101 ft | 257 kts | 278° |
| 2026-05-04 18:21 | 55.48666 | 13.35206 | 8786 ft | 260 kts | 282° |
| 2026-05-04 18:21 | 55.49090 | 13.32109 | 8476 ft | 260 kts | 283° |
| 2026-05-04 18:21 | 55.49519 | 13.29030 | 8317 ft | 259 kts | 283° |
| 2026-05-04 18:21 | 55.49954 | 13.25932 | 8197 ft | 259 kts | 283° |
| 2026-05-04 18:22 | 55.50382 | 13.22851 | 8069 ft | 259 kts | 283° |
| 2026-05-04 18:22 | 55.50803 | 13.19774 | 7941 ft | 258 kts | 282° |
| 2026-05-04 18:22 | 55.51223 | 13.16687 | 7814 ft | 258 kts | 282° |
| 2026-05-04 18:22 | 55.51639 | 13.13612 | 7687 ft | 258 kts | 282° |
| 2026-05-04 18:23 | 55.52054 | 13.10539 | 7565 ft | 257 kts | 282° |
| 2026-05-04 18:23 | 55.52467 | 13.07475 | 7437 ft | 257 kts | 282° |
| 2026-05-04 18:23 | 55.52881 | 13.04410 | 7311 ft | 256 kts | 282° |
| 2026-05-04 18:23 | 55.53295 | 13.01348 | 7185 ft | 256 kts | 282° |
| 2026-05-04 18:24 | 55.53700 | 12.98334 | 7065 ft | 255 kts | 282° |
| 2026-05-04 18:24 | 55.54278 | 12.95381 | 6935 ft | 257 kts | 298° |
| 2026-05-04 18:24 | 55.55481 | 12.93059 | 6804 ft | 261 kts | 322° |
| 2026-05-04 18:24 | 55.57130 | 12.91817 | 6663 ft | 254 kts | 339° |
| 2026-05-04 18:25 | 55.58790 | 12.90888 | 6538 ft | 245 kts | 338° |
| 2026-05-04 18:25 | 55.60398 | 12.90027 | 6414 ft | 239 kts | 344° |
| 2026-05-04 18:25 | 55.62054 | 12.89850 | 6184 ft | 240 kts | 2° |
| 2026-05-04 18:25 | 55.63679 | 12.90615 | 5908 ft | 245 kts | 20° |
| 2026-05-04 18:26 | 55.65103 | 12.92287 | 5624 ft | 248 kts | 38° |
| 2026-05-04 18:26 | 55.66388 | 12.94322 | 5322 ft | 247 kts | 38° |
| 2026-05-04 18:26 | 55.67678 | 12.96323 | 5022 ft | 246 kts | 37° |
| 2026-05-04 18:26 | 55.68969 | 12.98293 | 4726 ft | 244 kts | 34° |
| 2026-05-04 18:27 | 55.70462 | 12.99454 | 4423 ft | 231 kts | 2° |
| 2026-05-04 18:27 | 55.71969 | 12.99033 | 4098 ft | 219 kts | 329° |
| 2026-05-04 18:27 | 55.73182 | 12.97455 | 3992 ft | 206 kts | 316° |
| 2026-05-04 18:27 | 55.74192 | 12.95890 | 3993 ft | 185 kts | 315° |
| 2026-05-04 18:28 | 55.75115 | 12.94384 | 3996 ft | 177 kts | 307° |
| 2026-05-04 18:28 | 55.75510 | 12.92403 | 4007 ft | 175 kts | 267° |
| 2026-05-04 18:28 | 55.75161 | 12.90312 | 4013 ft | 178 kts | 248° |
| 2026-05-04 18:28 | 55.74618 | 12.88330 | 4009 ft | 179 kts | 246° |
| 2026-05-04 18:29 | 55.74045 | 12.86353 | 4008 ft | 180 kts | 245° |
| 2026-05-04 18:29 | 55.73446 | 12.84341 | 3560 ft | 191 kts | 244° |
| 2026-05-04 18:29 | 55.72646 | 12.82374 | 2974 ft | 204 kts | 226° |
| 2026-05-04 18:29 | 55.71556 | 12.80723 | 2525 ft | 204 kts | 224° |
| 2026-05-04 18:30 | 55.69579 | 12.77705 | 1899 ft | 171 kts | 226° |
| 2026-05-04 18:30 | 55.68708 | 12.76351 | 1676 ft | 163 kts | 226° |
| 2026-05-04 18:30 | 55.67868 | 12.75041 | 1470 ft | 159 kts | 225° |
| 2026-05-04 18:31 | 55.67045 | 12.73760 | 1246 ft | 157 kts | 225° |
| 2026-05-04 18:31 | 55.66230 | 12.72492 | 1030 ft | 157 kts | 226° |
| 2026-05-04 18:31 | 55.65427 | 12.71245 | 800 ft | 143 kts | 225° |
| 2026-05-04 18:31 | 55.64719 | 12.70149 | 630 ft | 130 kts | 224° |
| 2026-05-04 18:32 | 55.64046 | 12.69100 | 449 ft | 129 kts | 224° |
| 2026-05-04 18:32 | 55.63375 | 12.68060 | 260 ft | 128 kts | 225° |
| 2026-05-04 18:32 | 55.62710 | 12.67028 | 139 ft | 127 kts | 226° |
| 2026-05-04 18:32 | 55.62071 | 12.66017 | 24 ft | 111 kts | 224° |
| 2026-05-04 18:33 | 55.61611 | 12.65299 | 22 ft | 49 kts | 221° |
| 2026-05-04 18:33 | 55.61425 | 12.65010 | 25 ft | 34 kts | 222° |
| 2026-05-04 18:33 | 55.61281 | 12.64700 | 26 ft | 32 kts | 246° |
| 2026-05-04 18:33 | 55.61217 | 12.64400 | 25 ft | 20 kts | 252° |
| 2026-05-04 18:34 | 55.61197 | 12.64170 | 25 ft | 18 kts | 292° |
| 2026-05-04 18:34 | 55.61300 | 12.64134 | 24 ft | 17 kts | 24° |
| 2026-05-04 18:34 | 55.61396 | 12.64245 | 24 ft | 18 kts | 33° |
| 2026-05-04 18:34 | 55.61519 | 12.64385 | 24 ft | 24 kts | 34° |
| 2026-05-04 18:35 | 55.61671 | 12.64563 | 24 ft | 29 kts | 32° |
| 2026-05-04 18:35 | 55.61836 | 12.64751 | 25 ft | 19 kts | 33° |
| 2026-05-04 18:35 | 55.61940 | 12.64870 | 24 ft | 22 kts | 33° |
| 2026-05-04 18:35 | 55.62065 | 12.65012 | 25 ft | 16 kts | 35° |
| 2026-05-04 18:36 | 55.62105 | 12.65058 | 24 ft | 0 kts | 33° |
| 2026-05-04 18:36 | 55.62115 | 12.65069 | 27 ft | 0 kts | 32° |
| 2026-05-04 18:38 | 55.62125 | 12.65081 | 25 ft | 7 kts | 33° |
| 2026-05-04 18:38 | 55.62201 | 12.65170 | 27 ft | 19 kts | 30° |
| 2026-05-04 18:38 | 55.62294 | 12.65285 | 24 ft | 16 kts | 72° |
| 2026-05-04 18:39 | 55.62383 | 12.65330 | 24 ft | 14 kts | 359° |
| 2026-05-04 18:39 | 55.62489 | 12.65327 | 24 ft | 16 kts | 359° |
| 2026-05-04 18:39 | 55.62602 | 12.65329 | 24 ft | 16 kts | 2° |
| 2026-05-04 18:39 | 55.62670 | 12.65363 | 24 ft | 14 kts | 26° |
| 2026-05-04 18:40 | 55.62704 | 12.65393 | 25 ft | 0 kts | 27° |
| 2026-05-04 18:40 | 55.62708 | 12.65397 | 24 ft | 0 kts | 26° |